createdAt,value
2017-06-28T00:02:22.429Z,84.30
2017-06-28T00:04:50.630Z,84.50
2017-06-28T00:07:18.840Z,86.80
2017-06-28T00:09:47.370Z,86.80
2017-06-28T00:12:15.584Z,85.30
2017-06-28T00:14:43.781Z,86.80
2017-06-28T00:17:12.375Z,86.00
2017-06-28T00:19:40.573Z,85.60
2017-06-28T00:22:08.782Z,86.10
2017-06-28T00:24:37.451Z,86.40
2017-06-28T00:27:06.409Z,86.50
2017-06-28T00:29:34.606Z,86.50
2017-06-28T00:32:03.169Z,86.20
2017-06-28T00:34:31.407Z,85.50
2017-06-28T00:36:59.605Z,85.70
2017-06-28T00:39:28.218Z,85.00
2017-06-28T00:41:56.758Z,85.20
2017-06-28T00:44:24.955Z,85.40
2017-06-28T00:46:53.652Z,85.80
2017-06-28T00:49:21.835Z,85.10
2017-06-28T00:51:50.026Z,84.40
2017-06-28T00:54:19.492Z,84.10
2017-06-28T00:56:47.820Z,84.10
2017-06-28T00:59:16.021Z,83.70
2017-06-28T01:01:44.608Z,83.40
2017-06-28T01:04:12.799Z,83.90
2017-06-28T01:06:40.972Z,83.20
2017-06-28T01:09:09.523Z,83.20
2017-06-28T01:11:37.767Z,83.00
2017-06-28T01:14:06.806Z,83.10
2017-06-28T01:16:35.394Z,83.10
2017-06-28T01:19:03.652Z,82.00
2017-06-28T01:21:31.854Z,82.10
2017-06-28T01:24:00.428Z,82.30
2017-06-28T01:26:28.609Z,82.50
2017-06-28T01:28:56.796Z,82.50
2017-06-28T01:31:25.453Z,81.90
2017-06-28T01:33:53.748Z,82.80
2017-06-28T01:36:21.944Z,82.30
2017-06-28T01:38:50.583Z,82.90
2017-06-28T01:41:18.764Z,82.70
2017-06-28T01:43:46.975Z,82.80
2017-06-28T01:46:16.462Z,82.80
2017-06-28T01:48:44.659Z,82.90
2017-06-28T01:51:13.609Z,83.10
2017-06-28T01:53:42.169Z,83.00
2017-06-28T01:56:10.332Z,86.00
2017-06-28T01:58:38.551Z,83.70
2017-06-28T02:01:07.109Z,82.70
2017-06-28T02:03:35.473Z,83.90
2017-06-28T02:06:03.662Z,82.80
2017-06-28T02:08:32.185Z,83.20
2017-06-28T02:11:01.161Z,83.20
2017-06-28T02:13:29.343Z,83.20
2017-06-28T02:15:57.931Z,82.40
2017-06-28T02:18:26.905Z,82.40
2017-06-28T02:20:55.108Z,82.70
2017-06-28T02:23:24.454Z,82.80
2017-06-28T02:25:52.659Z,82.70
2017-06-28T02:28:20.886Z,82.60
2017-06-28T02:30:49.496Z,82.80
2017-06-28T02:33:17.745Z,83.10
2017-06-28T02:35:45.963Z,83.20
2017-06-28T02:38:14.534Z,82.90
2017-06-28T02:40:42.762Z,82.60
2017-06-28T02:43:11.043Z,83.20
2017-06-28T02:45:39.663Z,83.00
2017-06-28T02:48:07.916Z,83.10
2017-06-28T02:50:36.116Z,83.00
2017-06-28T02:53:04.670Z,82.90
2017-06-28T02:55:32.848Z,82.90
2017-06-28T02:58:01.043Z,82.60
2017-06-28T03:00:29.622Z,82.30
2017-06-28T03:02:57.830Z,83.10
2017-06-28T03:05:26.869Z,82.80
2017-06-28T03:07:55.458Z,82.60
2017-06-28T03:10:23.660Z,83.00
2017-06-28T03:12:51.851Z,82.10
2017-06-28T03:15:21.222Z,82.10
2017-06-28T03:17:49.429Z,82.00
2017-06-28T03:20:18.435Z,81.90
2017-06-28T03:22:46.986Z,81.90
2017-06-28T03:25:15.189Z,82.00
2017-06-28T03:27:43.385Z,81.50
2017-06-28T03:30:11.981Z,81.80
2017-06-28T03:32:40.305Z,81.80
2017-06-28T03:35:09.261Z,82.70
2017-06-28T03:37:37.828Z,82.70
2017-06-28T03:40:06.069Z,82.60
2017-06-28T03:42:34.296Z,82.30
2017-06-28T03:45:02.863Z,82.20
2017-06-28T03:47:31.168Z,81.60
2017-06-28T03:49:59.342Z,81.50
2017-06-28T03:52:27.900Z,81.70
2017-06-28T03:54:56.081Z,81.70
2017-06-28T03:57:24.289Z,81.70
2017-06-28T03:59:53.641Z,81.70
2017-06-28T04:02:22.169Z,81.70
2017-06-28T04:04:50.394Z,81.70
2017-06-28T04:07:20.333Z,81.80
2017-06-28T04:09:49.362Z,80.90
2017-06-28T04:12:17.617Z,81.00
2017-06-28T04:14:46.294Z,80.40
2017-06-28T04:17:14.517Z,79.50
2017-06-28T04:19:42.734Z,80.20
2017-06-28T04:22:11.306Z,80.20
2017-06-28T04:24:39.522Z,79.20
2017-06-28T04:27:08.459Z,79.50
2017-06-28T04:29:37.019Z,79.50
2017-06-28T04:32:05.222Z,79.40
2017-06-28T04:34:33.463Z,79.20
2017-06-28T04:37:02.041Z,78.90
2017-06-28T04:39:30.233Z,77.40
2017-06-28T04:41:58.496Z,77.50
2017-06-28T04:44:27.099Z,77.20
2017-06-28T04:46:55.310Z,77.60
2017-06-28T04:49:23.527Z,77.50
2017-06-28T04:51:52.120Z,77.80
2017-06-28T04:54:20.387Z,78.40
2017-06-28T04:56:48.626Z,78.20
2017-06-28T04:59:17.287Z,78.60
2017-06-28T05:01:45.478Z,78.10
2017-06-28T05:04:14.476Z,77.10
2017-06-28T05:06:43.811Z,77.70
2017-06-28T05:09:12.003Z,78.20
2017-06-28T05:11:40.223Z,76.70
2017-06-28T05:14:09.742Z,79.40
2017-06-28T05:16:37.937Z,79.40
2017-06-28T05:19:06.164Z,78.70
2017-06-28T05:21:34.806Z,77.90
2017-06-28T05:24:02.980Z,78.30
2017-06-28T05:26:31.188Z,78.20
2017-06-28T05:28:59.757Z,78.30
2017-06-28T05:31:27.961Z,77.80
2017-06-28T05:33:56.257Z,77.90
2017-06-28T05:36:25.038Z,77.10
2017-06-28T05:38:53.546Z,77.30
2017-06-28T05:41:22.090Z,76.20
2017-06-28T05:43:51.439Z,75.00
2017-06-28T05:46:19.710Z,75.00
2017-06-28T05:48:48.985Z,71.90
2017-06-28T05:51:17.803Z,71.10
2017-06-28T05:53:46.157Z,70.30
2017-06-28T05:56:14.373Z,69.00
2017-06-28T05:58:42.992Z,67.30
2017-06-28T06:01:11.971Z,67.30
2017-06-28T06:03:40.973Z,67.70
2017-06-28T06:06:10.298Z,69.30
2017-06-28T06:08:38.504Z,69.40
2017-06-28T06:11:06.722Z,69.40
2017-06-28T06:13:36.070Z,69.40
2017-06-28T06:16:04.262Z,69.30
2017-06-28T06:18:32.465Z,69.70
2017-06-28T06:21:01.921Z,69.20
2017-06-28T06:23:30.109Z,69.20
2017-06-28T06:25:58.320Z,67.30
2017-06-28T06:28:27.643Z,67.80
2017-06-28T06:30:55.852Z,67.80
2017-06-28T06:33:24.051Z,68.20
2017-06-28T06:35:52.704Z,67.30
2017-06-28T06:38:21.161Z,66.10
2017-06-28T06:40:49.352Z,65.50
2017-06-28T06:43:17.959Z,66.50
2017-06-28T06:45:46.189Z,64.60
2017-06-28T06:48:14.405Z,66.50
2017-06-28T06:50:42.970Z,66.70
2017-06-28T06:53:11.187Z,68.40
2017-06-28T06:55:40.186Z,66.50
2017-06-28T06:58:08.725Z,66.30
2017-06-28T07:00:37.824Z,66.80
2017-06-28T07:03:06.001Z,68.70
2017-06-28T07:05:34.560Z,67.80
2017-06-28T07:08:02.894Z,68.00
2017-06-28T07:10:31.883Z,68.70
2017-06-28T07:13:01.388Z,66.20
2017-06-28T07:15:30.340Z,67.80
2017-06-28T07:17:58.569Z,67.80
2017-06-28T07:20:27.313Z,66.60
2017-06-28T07:22:55.573Z,65.60
2017-06-28T07:25:23.762Z,66.30
2017-06-28T07:27:52.323Z,66.40
2017-06-28T07:30:20.550Z,64.80
2017-06-28T07:32:48.848Z,65.20
2017-06-28T07:35:17.391Z,63.50
2017-06-28T07:37:46.367Z,66.70
2017-06-28T07:40:14.555Z,66.60
2017-06-28T07:42:43.999Z,63.80
2017-06-28T07:45:12.190Z,63.90
2017-06-28T07:47:40.489Z,63.40
2017-06-28T07:50:09.063Z,63.10
2017-06-28T07:52:37.262Z,62.60
2017-06-28T07:55:06.258Z,63.80
2017-06-28T07:57:34.901Z,63.70
2017-06-28T08:00:03.360Z,63.60
2017-06-28T08:02:31.586Z,63.20
2017-06-28T08:05:00.181Z,62.30
2017-06-28T08:07:30.597Z,62.60
2017-06-28T08:09:59.927Z,63.60
2017-06-28T08:12:28.144Z,63.40
2017-06-28T08:14:56.371Z,65.70
2017-06-28T08:17:24.907Z,62.80
2017-06-28T08:19:53.148Z,62.00
2017-06-28T08:22:21.341Z,64.90
2017-06-28T08:24:49.946Z,63.20
2017-06-28T08:27:18.165Z,63.50
2017-06-28T08:29:46.367Z,63.30
2017-06-28T08:32:14.967Z,63.90
2017-06-28T08:34:43.220Z,61.90
2017-06-28T08:37:11.419Z,62.50
2017-06-28T08:39:40.103Z,60.70
2017-06-28T08:42:08.307Z,63.70
2017-06-28T08:44:36.497Z,63.90
2017-06-28T08:47:05.112Z,61.10
2017-06-28T08:49:33.367Z,60.30
2017-06-28T08:52:01.567Z,61.80
2017-06-28T08:54:30.080Z,60.50
2017-06-28T08:56:58.371Z,60.60
2017-06-28T08:59:27.320Z,60.70
2017-06-28T09:01:55.903Z,60.70
2017-06-28T09:04:24.178Z,57.70
2017-06-28T09:06:52.466Z,58.70
2017-06-28T09:09:21.128Z,60.00
2017-06-28T09:11:51.769Z,58.50
2017-06-28T09:14:19.967Z,58.40
2017-06-28T09:16:50.275Z,56.70
2017-06-28T09:19:18.461Z,56.30
2017-06-28T09:21:46.665Z,54.30
2017-06-28T09:24:16.913Z,53.70
2017-06-28T09:26:45.152Z,55.30
2017-06-28T09:29:13.365Z,56.00
2017-06-28T09:31:41.955Z,55.80
2017-06-28T09:34:10.157Z,57.20
2017-06-28T09:36:38.333Z,53.30
2017-06-28T09:39:07.095Z,53.80
2017-06-28T09:41:35.298Z,54.30
2017-06-28T09:44:04.264Z,55.50
2017-06-28T09:46:32.843Z,55.50
2017-06-28T09:49:01.566Z,54.30
2017-06-28T09:51:30.671Z,55.30
2017-06-28T09:53:59.303Z,55.30
2017-06-28T09:56:27.578Z,55.50
2017-06-28T09:58:55.777Z,55.80
2017-06-28T10:01:24.322Z,54.90
2017-06-28T10:03:52.584Z,55.00
2017-06-28T10:06:20.809Z,54.10
2017-06-28T10:08:49.581Z,55.10
2017-06-28T10:11:17.789Z,56.30
2017-06-28T10:13:46.739Z,53.50
2017-06-28T10:16:16.261Z,53.60
2017-06-28T10:18:44.461Z,53.30
2017-06-28T10:21:12.676Z,55.20
2017-06-28T10:23:41.249Z,52.70
2017-06-28T10:26:09.441Z,55.10
2017-06-28T10:28:37.620Z,52.60
2017-06-28T10:31:06.203Z,52.80
2017-06-28T10:33:34.409Z,53.40
2017-06-28T10:36:03.381Z,54.40
2017-06-28T10:38:31.956Z,54.40
2017-06-28T10:41:00.155Z,52.80
2017-06-28T10:43:28.405Z,53.00
2017-06-28T10:45:56.981Z,51.00
2017-06-28T10:48:25.316Z,53.10
2017-06-28T10:50:53.539Z,53.10
2017-06-28T10:53:22.923Z,52.10
2017-06-28T10:55:51.137Z,52.10
2017-06-28T10:58:20.146Z,50.00
2017-06-28T11:00:48.767Z,49.80
2017-06-28T11:03:16.966Z,50.50
2017-06-28T11:05:45.209Z,51.00
2017-06-28T11:08:14.128Z,52.30
2017-06-28T11:10:42.905Z,52.20
2017-06-28T11:13:11.088Z,50.70
2017-06-28T11:15:39.882Z,50.00
2017-06-28T11:18:08.227Z,51.10
2017-06-28T11:20:36.449Z,51.40
2017-06-28T11:23:05.841Z,51.60
2017-06-28T11:25:34.083Z,51.60
2017-06-28T11:28:02.285Z,51.30
2017-06-28T11:30:30.923Z,53.10
2017-06-28T11:32:59.120Z,53.00
2017-06-28T11:35:27.326Z,53.60
2017-06-28T11:37:56.708Z,52.40
2017-06-28T11:40:24.895Z,53.00
2017-06-28T11:42:53.090Z,53.20
2017-06-28T11:45:21.813Z,52.40
2017-06-28T11:47:50.069Z,51.70
2017-06-28T11:50:18.315Z,53.30
2017-06-28T11:52:47.761Z,53.30
2017-06-28T11:55:16.002Z,53.30
2017-06-28T11:57:44.974Z,53.50
2017-06-28T12:00:14.352Z,54.10
2017-06-28T12:02:42.659Z,53.50
2017-06-28T12:05:11.619Z,52.70
2017-06-28T12:07:40.229Z,52.70
2017-06-28T12:10:09.235Z,52.50
2017-06-28T12:12:38.251Z,52.20
2017-06-28T12:15:06.870Z,52.10
2017-06-28T12:17:35.087Z,54.10
2017-06-28T12:20:04.070Z,54.00
2017-06-28T12:22:32.728Z,54.10
2017-06-28T12:25:00.953Z,53.20
2017-06-28T12:27:29.201Z,52.80
2017-06-28T12:29:58.525Z,51.40
2017-06-28T12:32:26.922Z,51.30
2017-06-28T12:34:55.272Z,52.30
2017-06-28T12:37:23.894Z,52.50
2017-06-28T12:39:52.109Z,51.00
2017-06-28T12:42:21.092Z,51.20
2017-06-28T12:44:49.750Z,51.20
